Time;durP1;ratioP1;P1;durP2;ratioP2;P2;SDS_P1;SDS_P2;PMS_P1;PMS_P2;Temp;Humidity;BMP_temperature;BMP_pressure;BME280_temperature;BME280_humidity;BME280_pressure;Samples;Min_cycle;Max_cycle;Signal;HPM_P1;HPM_P2
2024/01/08 00:01:23;;;;;;;43.65;15.10;;;;;;;;;;6292856;28;20048;-62
2024/01/08 00:04:24;;;;;;;44.35;15.15;;;;;;;;;;6291958;28;20792;-61
2024/01/08 00:07:25;;;;;;;43.22;13.88;;;;;;;;;;6290970;28;20048;-59
2024/01/08 00:10:26;;;;;;;39.88;14.55;;;;;;;;;;6291624;28;20075;-63
2024/01/08 00:13:27;;;;;;;43.50;13.73;;;;;;;;;;6291848;28;20060;-63
2024/01/08 00:16:28;;;;;;;43.53;14.82;;;;;;;;;;6291256;28;20160;-64
2024/01/08 00:19:30;;;;;;;;;;;;;;;;;;6289568;28;20756;-61
2024/01/08 00:22:31;;;;;;;45.05;13.60;;;;;;;;;;6290813;28;19932;-62
2024/01/08 00:25:32;;;;;;;39.08;13.15;;;;;;;;;;6292440;28;20044;-62
2024/01/08 00:28:33;;;;;;;41.22;14.35;;;;;;;;;;6290645;28;20483;-63
2024/01/08 00:31:33;;;;;;;34.05;12.93;;;;;;;;;;6288748;28;20052;-60
2024/01/08 00:34:36;;;;;;;42.65;14.65;;;;;;;;;;6282098;28;20510;-62
2024/01/08 00:37:38;;;;;;;39.72;13.25;;;;;;;;;;6283601;28;20099;-60
2024/01/08 00:40:39;;;;;;;44.05;13.80;;;;;;;;;;6283477;28;20045;-60
2024/01/08 00:43:40;;;;;;;49.60;13.85;;;;;;;;;;6280170;28;20569;-59
2024/01/08 00:46:41;;;;;;;39.35;14.20;;;;;;;;;;6284120;28;20048;-60
2024/01/08 00:49:41;;;;;;;37.55;13.90;;;;;;;;;;6280387;28;20056;-60
2024/01/08 00:52:42;;;;;;;41.25;14.15;;;;;;;;;;6279303;28;20145;-59
2024/01/08 00:55:43;;;;;;;40.45;14.20;;;;;;;;;;6283380;28;20048;-61
2024/01/08 00:58:44;;;;;;;41.88;14.82;;;;;;;;;;6276788;28;20229;-60
2024/01/08 01:01:45;;;;;;;43.25;15.30;;;;;;;;;;6280950;28;20041;-63
2024/01/08 01:04:46;;;;;;;38.75;12.93;;;;;;;;;;6286686;28;20040;-63
2024/01/08 01:07:47;;;;;;;37.72;12.50;;;;;;;;;;6283224;28;20673;-62
2024/01/08 01:10:47;;;;;;;38.25;13.25;;;;;;;;;;6282572;28;20045;-62
2024/01/08 01:13:48;;;;;;;40.72;13.85;;;;;;;;;;6282229;28;20475;-60
2024/01/08 01:16:49;;;;;;;36.95;13.60;;;;;;;;;;6280860;28;20040;-62
2024/01/08 01:19:50;;;;;;;35.85;12.65;;;;;;;;;;6289827;28;20441;-60
2024/01/08 01:22:51;;;;;;;37.10;13.90;;;;;;;;;;6290315;28;20181;-61
2024/01/08 01:25:51;;;;;;;43.60;14.35;;;;;;;;;;6290547;28;20044;-63
2024/01/08 01:28:54;;;;;;;43.28;14.50;;;;;;;;;;6287377;28;20132;-60
2024/01/08 01:31:55;;;;;;;46.53;15.02;;;;;;;;;;6290727;28;20044;-60
2024/01/08 01:34:56;;;;;;;34.33;12.98;;;;;;;;;;6290710;28;20407;-62
2024/01/08 01:37:58;;;;;;;31.52;11.30;;;;;;;;;;6288986;28;20566;-63
2024/01/08 01:40:59;;;;;;;;;;;;;;;;;;6289968;28;20052;-63
2024/01/08 01:43:59;;;;;;;34.70;12.13;;;;;;;;;;6290525;28;19931;-62
2024/01/08 01:47:00;;;;;;;36.15;12.02;;;;;;;;;;6289006;28;20048;-62
2024/01/08 01:50:02;;;;;;;39.92;13.05;;;;;;;;;;6289261;28;20047;-60
2024/01/08 01:53:03;;;;;;;40.10;15.43;;;;;;;;;;6289851;28;20041;-60
2024/01/08 01:56:04;;;;;;;33.30;13.10;;;;;;;;;;6289401;28;20547;-63
2024/01/08 01:59:07;;;;;;;34.03;12.38;;;;;;;;;;6286670;28;20060;-60
2024/01/08 02:02:07;;;;;;;38.75;14.48;;;;;;;;;;6290008;28;20446;-60
2024/01/08 02:05:11;;;;;;;38.78;13.25;;;;;;;;;;6289226;28;20045;-60
2024/01/08 02:08:12;;;;;;;33.90;11.73;;;;;;;;;;6287508;28;20048;-62
2024/01/08 02:11:12;;;;;;;29.70;11.15;;;;;;;;;;6288665;28;20048;-61
2024/01/08 02:14:13;;;;;;;37.05;13.75;;;;;;;;;;6288105;28;20052;-62
2024/01/08 02:17:14;;;;;;;32.33;10.93;;;;;;;;;;6287048;28;20057;-62
2024/01/08 02:20:15;;;;;;;35.30;11.75;;;;;;;;;;6288462;28;20056;-62
2024/01/08 02:23:16;;;;;;;30.73;11.93;;;;;;;;;;6289966;28;20064;-63
2024/01/08 02:26:17;;;;;;;36.38;13.15;;;;;;;;;;6286039;28;20059;-63
2024/01/08 02:29:21;;;;;;;39.15;12.25;;;;;;;;;;6287418;28;20051;-60
2024/01/08 02:32:22;;;;;;;37.42;13.35;;;;;;;;;;6288686;28;20044;-63
2024/01/08 02:35:22;;;;;;;35.03;12.45;;;;;;;;;;6287073;28;20147;-61
2024/01/08 02:38:24;;;;;;;38.38;12.02;;;;;;;;;;6287392;28;20480;-62
2024/01/08 02:41:25;;;;;;;34.93;11.33;;;;;;;;;;6288884;28;20538;-60
2024/01/08 02:44:25;;;;;;;33.33;12.02;;;;;;;;;;6287524;28;20294;-60
2024/01/08 02:47:26;;;;;;;38.40;12.98;;;;;;;;;;6285888;28;20753;-63
2024/01/08 02:50:27;;;;;;;48.67;12.65;;;;;;;;;;6288110;28;20044;-62
2024/01/08 02:53:28;;;;;;;38.03;12.90;;;;;;;;;;6288840;28;20456;-62
2024/01/08 02:56:28;;;;;;;34.42;12.77;;;;;;;;;;6288909;28;20161;-60
2024/01/08 02:59:29;;;;;;;40.15;13.07;;;;;;;;;;6287378;28;20075;-62
2024/01/08 03:02:31;;;;;;;43.33;13.70;;;;;;;;;;6289014;28;20044;-62
2024/01/08 03:05:32;;;;;;;34.55;11.95;;;;;;;;;;6288552;28;20507;-60
2024/01/08 03:08:32;;;;;;;35.30;12.70;;;;;;;;;;6285193;28;20044;-61
2024/01/08 03:11:34;;;;;;;41.10;13.10;;;;;;;;;;6287019;28;20044;-61
2024/01/08 03:14:34;;;;;;;38.95;13.05;;;;;;;;;;6288686;28;20052;-60
2024/01/08 03:17:35;;;;;;;38.17;13.52;;;;;;;;;;6288421;28;20059;-61
2024/01/08 03:20:36;;;;;;;38.83;12.93;;;;;;;;;;6290682;28;20048;-61
2024/01/08 03:23:37;;;;;;;41.60;13.00;;;;;;;;;;6293733;28;20047;-61
2024/01/08 03:26:38;;;;;;;39.75;12.48;;;;;;;;;;6293473;28;20044;-62
2024/01/08 03:29:38;;;;;;;41.40;14.32;;;;;;;;;;6287899;28;20482;-60
2024/01/08 03:32:39;;;;;;;39.78;12.95;;;;;;;;;;6292573;28;20056;-61
2024/01/08 03:35:43;;;;;;;41.67;14.65;;;;;;;;;;6292348;28;20571;-62
2024/01/08 03:38:43;;;;;;;38.38;13.73;;;;;;;;;;6291934;28;20483;-62
2024/01/08 03:41:44;;;;;;;34.30;11.85;;;;;;;;;;6291984;28;20128;-62
2024/01/08 03:44:45;;;;;;;40.92;13.35;;;;;;;;;;6291209;28;20040;-60
2024/01/08 03:47:45;;;;;;;41.35;13.75;;;;;;;;;;6291736;28;20159;-61
2024/01/08 03:50:46;;;;;;;51.55;17.02;;;;;;;;;;6291149;28;20048;-62
2024/01/08 03:53:47;;;;;;;43.50;14.52;;;;;;;;;;6290101;28;20303;-61
2024/01/08 03:56:47;;;;;;;41.58;13.32;;;;;;;;;;6292230;28;20044;-61
2024/01/08 03:59:48;;;;;;;37.92;13.32;;;;;;;;;;6291307;28;20479;-63
2024/01/08 04:02:49;;;;;;;43.08;14.82;;;;;;;;;;6292709;28;20043;-61
2024/01/08 04:05:50;;;;;;;46.92;16.08;;;;;;;;;;6291545;28;20048;-63
2024/01/08 04:08:50;;;;;;;49.30;15.48;;;;;;;;;;6291031;28;20049;-62
2024/01/08 04:11:52;;;;;;;44.80;15.05;;;;;;;;;;6289878;28;20052;-62
2024/01/08 04:14:53;;;;;;;43.25;16.17;;;;;;;;;;6290124;28;20060;-62
2024/01/08 04:17:53;;;;;;;47.65;14.73;;;;;;;;;;6291622;28;20071;-62
2024/01/08 04:20:54;;;;;;;43.63;14.98;;;;;;;;;;6291491;28;20045;-61
2024/01/08 04:23:55;;;;;;;39.92;15.18;;;;;;;;;;6291489;28;20040;-61
2024/01/08 04:26:56;;;;;;;40.60;13.73;;;;;;;;;;6289304;28;20048;-60
2024/01/08 04:29:57;;;;;;;44.28;14.65;;;;;;;;;;6289044;28;20056;-63
2024/01/08 04:32:57;;;;;;;46.95;15.07;;;;;;;;;;6289766;28;20107;-60
2024/01/08 04:35:58;;;;;;;42.35;15.05;;;;;;;;;;6291076;28;20055;-59
2024/01/08 04:38:59;;;;;;;45.67;16.42;;;;;;;;;;6289185;28;20041;-60
2024/01/08 04:41:59;;;;;;;38.03;15.45;;;;;;;;;;6291214;28;20044;-61
2024/01/08 04:45:00;;;;;;;41.22;14.13;;;;;;;;;;6289397;28;20060;-62
2024/01/08 04:48:03;;;;;;;37.60;14.85;;;;;;;;;;6289092;28;20045;-62
2024/01/08 04:51:04;;;;;;;44.58;15.73;;;;;;;;;;6290547;28;20083;-58
2024/01/08 04:54:07;;;;;;;49.13;13.80;;;;;;;;;;6292004;28;20060;-60
2024/01/08 04:57:08;;;;;;;34.45;12.70;;;;;;;;;;6290825;28;20403;-62
2024/01/08 05:00:11;;;;;;;40.03;13.70;;;;;;;;;;6288391;28;20467;-60
2024/01/08 05:03:12;;;;;;;55.58;15.02;;;;;;;;;;6289810;28;20056;-60
2024/01/08 05:06:14;;;;;;;44.67;15.68;;;;;;;;;;6289748;28;20132;-55
2024/01/08 05:09:15;;;;;;;43.05;16.90;;;;;;;;;;6289695;28;20052;-62
2024/01/08 05:12:16;;;;;;;39.70;14.38;;;;;;;;;;6291510;28;20134;-59
2024/01/08 05:15:17;;;;;;;32.00;12.35;;;;;;;;;;6291495;28;20056;-56
2024/01/08 05:18:17;;;;;;;38.40;13.32;;;;;;;;;;6286850;28;20052;-60
2024/01/08 05:21:18;;;;;;;41.35;14.85;;;;;;;;;;6289046;28;20123;-60
2024/01/08 05:24:20;;;;;;;42.90;14.35;;;;;;;;;;6287300;28;20131;-60
2024/01/08 05:27:20;;;;;;;44.30;15.95;;;;;;;;;;6287082;28;20841;-59
2024/01/08 05:30:21;;;;;;;34.83;12.68;;;;;;;;;;6287011;28;20049;-60
2024/01/08 05:33:22;;;;;;;39.30;14.70;;;;;;;;;;6289231;28;20476;-61
2024/01/08 05:36:23;;;;;;;44.73;15.03;;;;;;;;;;6290517;28;20075;-58
2024/01/08 05:39:23;;;;;;;45.75;14.73;;;;;;;;;;6289202;28;20048;-60
2024/01/08 05:42:24;;;;;;;38.05;13.88;;;;;;;;;;6286158;28;20142;-59
2024/01/08 05:45:25;;;;;;;38.35;13.18;;;;;;;;;;6289971;28;20044;-60
2024/01/08 05:48:26;;;;;;;40.13;14.82;;;;;;;;;;6288746;28;20048;-60
2024/01/08 05:51:28;;;;;;;41.72;14.00;;;;;;;;;;6290789;28;20130;-61
2024/01/08 05:54:28;;;;;;;47.83;14.30;;;;;;;;;;6288040;28;20479;-59
2024/01/08 05:57:29;;;;;;;40.22;14.50;;;;;;;;;;6290740;28;20055;-60
2024/01/08 06:00:30;;;;;;;36.25;14.02;;;;;;;;;;6284138;28;20056;-60
2024/01/08 06:03:31;;;;;;;42.65;16.25;;;;;;;;;;6282412;28;20057;-59
2024/01/08 06:06:32;;;;;;;40.50;14.45;;;;;;;;;;6288671;28;20491;-60
2024/01/08 06:09:32;;;;;;;32.00;13.23;;;;;;;;;;6285283;28;20044;-60
2024/01/08 06:12:33;;;;;;;47.83;15.90;;;;;;;;;;6288643;28;20189;-61
2024/01/08 06:15:34;;;;;;;43.55;14.45;;;;;;;;;;6286607;28;20060;-60
2024/01/08 06:18:35;;;;;;;32.50;13.63;;;;;;;;;;6287545;28;20551;-60
2024/01/08 06:21:35;;;;;;;38.38;13.57;;;;;;;;;;6288293;28;20048;-60
2024/01/08 06:24:36;;;;;;;39.47;13.23;;;;;;;;;;6284896;28;20048;-60
2024/01/08 06:27:37;;;;;;;44.53;14.75;;;;;;;;;;6283061;28;20464;-60
2024/01/08 06:30:38;;;;;;;38.65;13.40;;;;;;;;;;6286646;28;20052;-61
2024/01/08 06:33:38;;;;;;;43.10;14.10;;;;;;;;;;6291164;28;20063;-59
2024/01/08 06:36:39;;;;;;;43.33;15.45;;;;;;;;;;6289188;28;20055;-61
2024/01/08 06:39:40;;;;;;;42.50;14.82;;;;;;;;;;6286001;28;20387;-61
2024/01/08 06:42:42;;;;;;;45.50;15.32;;;;;;;;;;6289620;28;20091;-58
2024/01/08 06:45:43;;;;;;;45.03;15.77;;;;;;;;;;6289292;28;20500;-60
2024/01/08 06:48:44;;;;;;;43.10;14.10;;;;;;;;;;6287840;28;20055;-62
2024/01/08 06:51:44;;;;;;;47.35;16.05;;;;;;;;;;6288577;28;20045;-62
2024/01/08 06:54:45;;;;;;;48.40;17.05;;;;;;;;;;6288580;28;20044;-59
2024/01/08 06:57:49;;;;;;;38.30;13.32;;;;;;;;;;6288798;28;20044;-60
2024/01/08 07:00:50;;;;;;;35.65;14.75;;;;;;;;;;6287901;28;20459;-61
2024/01/08 07:03:50;;;;;;;37.97;12.82;;;;;;;;;;6288587;28;20059;-59
2024/01/08 07:06:51;;;;;;;40.92;15.20;;;;;;;;;;6288446;28;20782;-61
2024/01/08 07:09:53;;;;;;;42.75;14.75;;;;;;;;;;6286209;28;20752;-60
2024/01/08 07:12:53;;;;;;;39.50;15.70;;;;;;;;;;6288551;28;20044;-63
2024/01/08 07:15:54;;;;;;;36.15;13.88;;;;;;;;;;6288643;28;20529;-61
2024/01/08 07:18:55;;;;;;;41.50;14.32;;;;;;;;;;6286784;28;20102;-61
2024/01/08 07:21:56;;;;;;;43.40;15.18;;;;;;;;;;6287154;28;20056;-62
2024/01/08 07:24:56;;;;;;;32.35;13.73;;;;;;;;;;6288762;28;20262;-61
2024/01/08 07:27:58;;;;;;;45.03;16.27;;;;;;;;;;6287791;28;20059;-61
2024/01/08 07:31:01;;;;;;;37.05;14.73;;;;;;;;;;6287805;28;20049;-61
2024/01/08 07:34:01;;;;;;;44.50;16.27;;;;;;;;;;6288385;28;20076;-62
2024/01/08 07:37:02;;;;;;;46.42;14.98;;;;;;;;;;6288992;28;20095;-62
2024/01/08 07:40:04;;;;;;;39.78;15.18;;;;;;;;;;6282747;28;20059;-59
2024/01/08 07:43:05;;;;;;;;;;;;;;;;;;6288214;28;20491;-60
2024/01/08 07:46:06;;;;;;;38.15;14.02;;;;;;;;;;6277744;28;19924;-62
2024/01/08 07:49:06;;;;;;;40.72;15.30;;;;;;;;;;6288460;28;20056;-61
2024/01/08 07:52:07;;;;;;;50.47;15.35;;;;;;;;;;6287123;28;20481;-60
2024/01/08 07:55:09;;;;;;;44.95;14.55;;;;;;;;;;6282841;28;20059;-61
2024/01/08 07:58:13;;;;;;;41.17;15.85;;;;;;;;;;6278811;28;20106;-62
2024/01/08 08:01:15;;;;;;;41.65;15.77;;;;;;;;;;6281707;28;20463;-61
2024/01/08 08:04:16;;;;;;;44.90;14.95;;;;;;;;;;6283664;28;20056;-58
2024/01/08 08:07:17;;;;;;;44.30;15.57;;;;;;;;;;6289335;28;20057;-62
2024/01/08 08:10:18;;;;;;;44.53;15.98;;;;;;;;;;6290581;28;20055;-62
2024/01/08 08:13:19;;;;;;;52.17;16.70;;;;;;;;;;6291521;28;20060;-59
2024/01/08 08:16:20;;;;;;;48.15;17.02;;;;;;;;;;6291027;28;20492;-59
2024/01/08 08:19:21;;;;;;;51.45;16.63;;;;;;;;;;6289264;28;20048;-60
2024/01/08 08:22:23;;;;;;;54.50;16.70;;;;;;;;;;6292130;28;20056;-57
2024/01/08 08:25:24;;;;;;;40.80;14.23;;;;;;;;;;6289311;28;20036;-61
2024/01/08 08:28:25;;;;;;;50.75;17.60;;;;;;;;;;6291474;28;20637;-58
2024/01/08 08:31:26;;;;;;;39.85;15.05;;;;;;;;;;6291425;28;20040;-59
2024/01/08 08:34:26;;;;;;;42.08;14.95;;;;;;;;;;6291675;28;20403;-58
2024/01/08 08:37:27;;;;;;;40.55;15.20;;;;;;;;;;6292289;28;20411;-61
2024/01/08 08:40:28;;;;;;;44.40;15.10;;;;;;;;;;6287544;28;20488;-61
2024/01/08 08:43:30;;;;;;;41.90;14.88;;;;;;;;;;6290456;28;20731;-59
2024/01/08 08:46:31;;;;;;;46.72;15.57;;;;;;;;;;6292039;28;20044;-61
2024/01/08 08:49:32;;;;;;;48.55;15.48;;;;;;;;;;6290080;28;20056;-61
2024/01/08 08:52:32;;;;;;;41.17;14.45;;;;;;;;;;6289393;28;20052;-60
2024/01/08 08:55:33;;;;;;;45.72;15.02;;;;;;;;;;6291332;28;20051;-61
2024/01/08 08:58:34;;;;;;;45.60;14.38;;;;;;;;;;6290557;28;20079;-60
2024/01/08 09:01:35;;;;;;;48.95;15.38;;;;;;;;;;6290852;28;20083;-62
2024/01/08 09:04:36;;;;;;;47.33;17.23;;;;;;;;;;6292716;28;20410;-60
2024/01/08 09:07:37;;;;;;;48.13;15.88;;;;;;;;;;6288508;28;20480;-63
2024/01/08 09:10:38;;;;;;;48.38;16.88;;;;;;;;;;6286288;28;20041;-59
2024/01/08 09:13:38;;;;;;;55.45;18.27;;;;;;;;;;6290304;28;20496;-59
2024/01/08 09:16:39;;;;;;;44.17;16.70;;;;;;;;;;6290929;28;20051;-61
2024/01/08 09:19:40;;;;;;;48.83;16.13;;;;;;;;;;6289098;28;20066;-59
2024/01/08 09:22:41;;;;;;;53.60;18.35;;;;;;;;;;6290984;28;20040;-59
2024/01/08 09:25:41;;;;;;;53.60;16.45;;;;;;;;;;6288750;28;20637;-61
2024/01/08 09:28:42;;;;;;;56.03;17.33;;;;;;;;;;6288679;28;20039;-62
2024/01/08 09:31:44;;;;;;;47.38;16.05;;;;;;;;;;6287737;28;20087;-59
2024/01/08 09:34:45;;;;;;;50.10;15.95;;;;;;;;;;6290328;28;20393;-60
2024/01/08 09:37:46;;;;;;;45.10;15.90;;;;;;;;;;6290578;28;20044;-61
2024/01/08 09:40:48;;;;;;;47.40;16.25;;;;;;;;;;6289467;28;20045;-65
2024/01/08 09:43:51;;;;;;;44.35;15.52;;;;;;;;;;6290787;28;20083;-61
2024/01/08 09:46:52;;;;;;;49.10;17.52;;;;;;;;;;6288431;28;20041;-59
2024/01/08 09:49:53;;;;;;;44.15;16.33;;;;;;;;;;6288517;28;20641;-58
2024/01/08 09:52:55;;;;;;;34.08;12.13;;;;;;;;;;6290469;28;20110;-61
2024/01/08 09:55:57;;;;;;;40.85;13.80;;;;;;;;;;6289340;28;20400;-62
2024/01/08 09:58:58;;;;;;;42.03;15.13;;;;;;;;;;6288527;28;20048;-62
2024/01/08 10:01:59;;;;;;;31.98;13.05;;;;;;;;;;6288953;28;20044;-59
2024/01/08 10:05:00;;;;;;;38.85;13.27;;;;;;;;;;6289987;28;20051;-59
2024/01/08 10:08:01;;;;;;;37.97;12.88;;;;;;;;;;6287832;28;20052;-60
2024/01/08 10:11:05;;;;;;;44.53;15.15;;;;;;;;;;6288177;28;20480;-60
2024/01/08 10:14:07;;;;;;;35.55;13.10;;;;;;;;;;6288103;28;20054;-62
2024/01/08 10:17:07;;;;;;;57.13;17.63;;;;;;;;;;6289731;28;20074;-60
2024/01/08 10:20:09;;;;;;;54.58;15.38;;;;;;;;;;6287172;28;20056;-62
2024/01/08 10:23:12;;;;;;;49.38;14.52;;;;;;;;;;6289702;28;20051;-59
2024/01/08 10:26:16;;;;;;;57.78;17.25;;;;;;;;;;6290084;28;20041;-59
2024/01/08 10:29:18;;;;;;;46.92;15.32;;;;;;;;;;6288023;28;20175;-60
2024/01/08 10:32:19;;;;;;;38.03;12.43;;;;;;;;;;6288505;28;20048;-61
2024/01/08 10:35:20;;;;;;;34.25;12.40;;;;;;;;;;6287417;28;20052;-61
2024/01/08 10:38:21;;;;;;;39.13;14.35;;;;;;;;;;6287988;28;20051;-62
2024/01/08 10:41:23;;;;;;;36.45;12.43;;;;;;;;;;6285973;28;20041;-58
2024/01/08 10:44:25;;;;;;;38.28;13.15;;;;;;;;;;6287866;28;20523;-58
2024/01/08 10:47:26;;;;;;;46.67;14.07;;;;;;;;;;6289125;28;20047;-57
2024/01/08 10:50:28;;;;;;;50.35;15.10;;;;;;;;;;6287686;28;20093;-62
2024/01/08 10:53:45;;;;;;;44.78;16.77;;;;;;;;;;6287164;28;20044;-61
2024/01/08 10:56:51;;;;;;;46.78;15.48;;;;;;;;;;6285436;28;20048;-60
2024/01/08 10:59:53;;;;;;;47.00;17.10;;;;;;;;;;6288369;28;20052;-60
2024/01/08 11:02:54;;;;;;;47.80;14.55;;;;;;;;;;6284442;28;20052;-59
2024/01/08 11:05:58;;;;;;;48.58;15.25;;;;;;;;;;6288879;28;20127;-57
2024/01/08 11:09:00;;;;;;;40.58;14.45;;;;;;;;;;6285203;28;20074;-59
2024/01/08 11:12:02;;;;;;;47.88;15.52;;;;;;;;;;6287452;28;20124;-60
2024/01/08 11:15:04;;;;;;;43.95;15.63;;;;;;;;;;6287170;28;20059;-57
2024/01/08 11:18:06;;;;;;;;;;;;;;;;;;6285800;28;20056;-59
2024/01/08 11:21:07;;;;;;;36.63;12.73;;;;;;;;;;6286476;28;19920;-60
2024/01/08 11:24:09;;;;;;;40.67;14.48;;;;;;;;;;6287083;28;20048;-59
2024/01/08 11:27:10;;;;;;;52.92;16.13;;;;;;;;;;6287729;28;20037;-58
2024/01/08 11:30:11;;;;;;;50.78;18.10;;;;;;;;;;6287336;28;20126;-60
2024/01/08 11:33:45;;;;;;;43.35;15.45;;;;;;;;;;6287109;28;20045;-60
2024/01/08 11:36:50;;;;;;;44.75;15.88;;;;;;;;;;6278605;28;20129;-59
2024/01/08 11:40:07;;;;;;;38.85;14.95;;;;;;;;;;6286814;28;20045;-60
2024/01/08 11:43:08;;;;;;;48.38;14.95;;;;;;;;;;6292563;28;20569;-61
2024/01/08 11:46:09;;;;;;;51.88;16.20;;;;;;;;;;6289851;28;20056;-61
2024/01/08 11:49:15;;;;;;;45.13;15.10;;;;;;;;;;6289507;28;20534;-60
2024/01/08 11:52:16;;;;;;;54.70;15.90;;;;;;;;;;6293296;28;20045;-64
2024/01/08 11:55:20;;;;;;;48.20;17.05;;;;;;;;;;6272605;28;20098;-62
2024/01/08 11:58:21;;;;;;;45.30;16.55;;;;;;;;;;6271733;28;20052;-63
2024/01/08 12:01:21;;;;;;;43.83;14.48;;;;;;;;;;6271208;28;21549;-64
2024/01/08 12:04:22;;;;;;;44.17;15.45;;;;;;;;;;6264890;28;20044;-64
2024/01/08 12:07:24;;;;;;;50.92;18.95;;;;;;;;;;6270138;28;20060;-64
2024/01/08 12:10:25;;;;;;;;;;;;;;;;;;6276058;28;20052;-61
2024/01/08 12:13:26;;;;;;;47.55;16.40;;;;;;;;;;6269896;28;19958;-61
2024/01/08 12:16:27;;;;;;;50.30;16.60;;;;;;;;;;6266993;28;20052;-59
2024/01/08 12:19:36;;;;;;;51.08;16.85;;;;;;;;;;6267169;28;20104;-59
2024/01/08 12:22:37;;;;;;;47.08;16.63;;;;;;;;;;6268508;28;20048;-60
2024/01/08 12:25:38;;;;;;;46.33;16.60;;;;;;;;;;6268052;28;20057;-58
2024/01/08 12:28:39;;;;;;;45.28;15.77;;;;;;;;;;6266769;28;20040;-59
2024/01/08 12:31:43;;;;;;;47.80;16.25;;;;;;;;;;6266076;28;20095;-59
2024/01/08 12:34:44;;;;;;;51.33;15.85;;;;;;;;;;6267613;28;20074;-60
2024/01/08 12:37:44;;;;;;;44.13;17.42;;;;;;;;;;6268372;28;20041;-59
2024/01/08 12:40:52;;;;;;;42.45;15.68;;;;;;;;;;6266348;28;20060;-60
2024/01/08 12:43:54;;;;;;;49.95;16.65;;;;;;;;;;6265888;28;20071;-60
2024/01/08 12:46:55;;;;;;;;;;;;;;;;;;6266147;28;20045;-59
2024/01/08 12:49:56;;;;;;;37.83;13.57;;;;;;;;;;6272832;28;20410;-59
2024/01/08 12:52:57;;;;;;;40.33;14.25;;;;;;;;;;6271110;28;20049;-59
2024/01/08 12:55:58;;;;;;;34.67;13.80;;;;;;;;;;6269505;28;20113;-58
2024/01/08 12:58:59;;;;;;;38.05;13.77;;;;;;;;;;6269146;28;20545;-58
2024/01/08 13:02:00;;;;;;;41.35;15.05;;;;;;;;;;6272018;28;20052;-59
2024/01/08 13:05:04;;;;;;;38.25;14.15;;;;;;;;;;6270784;28;20070;-55
2024/01/08 13:08:05;;;;;;;45.67;15.73;;;;;;;;;;6268760;28;20153;-55
2024/01/08 13:11:06;;;;;;;43.92;16.60;;;;;;;;;;6273355;28;20068;-58
2024/01/08 13:14:17;;;;;;;46.97;16.52;;;;;;;;;;6269651;28;20044;-59
2024/01/08 13:17:19;;;;;;;51.15;17.75;;;;;;;;;;6269910;28;20685;-59
2024/01/08 13:20:20;;;;;;;44.90;16.95;;;;;;;;;;6267254;28;20052;-60
2024/01/08 13:23:21;;;;;;;46.17;14.73;;;;;;;;;;6270621;28;20458;-57
2024/01/08 13:26:23;;;;;;;41.40;14.30;;;;;;;;;;6265134;28;20044;-58
2024/01/08 13:29:24;;;;;;;43.53;16.75;;;;;;;;;;6271789;28;20129;-59
2024/01/08 13:32:25;;;;;;;37.15;13.52;;;;;;;;;;6266886;28;20052;-61
2024/01/08 13:35:26;;;;;;;32.60;11.70;;;;;;;;;;6272680;28;20049;-56
2024/01/08 13:38:27;;;;;;;43.28;15.90;;;;;;;;;;6264059;28;20493;-59
2024/01/08 13:41:30;;;;;;;47.37;15.87;;;;;;;;;;6267350;28;20059;-59
2024/01/08 13:44:31;;;;;;;38.03;13.68;;;;;;;;;;6266646;28;20387;-61
2024/01/08 13:47:32;;;;;;;36.20;13.48;;;;;;;;;;6263500;28;20447;-58
2024/01/08 13:50:32;;;;;;;37.08;13.45;;;;;;;;;;6263319;28;20076;-61
2024/01/08 13:53:33;;;;;;;37.97;14.50;;;;;;;;;;6265928;28;20539;-61
2024/01/08 13:56:34;;;;;;;46.85;16.30;;;;;;;;;;6267089;28;20837;-57
2024/01/08 13:59:35;;;;;;;42.60;16.85;;;;;;;;;;6267965;28;20106;-61
2024/01/08 14:02:36;;;;;;;55.55;17.67;;;;;;;;;;6264335;28;20045;-59
2024/01/08 14:05:37;;;;;;;54.80;19.23;;;;;;;;;;6263366;28;20061;-62
2024/01/08 14:08:37;;;;;;;52.50;18.23;;;;;;;;;;6270383;28;21482;-61
2024/01/08 14:11:38;;;;;;;59.88;20.83;;;;;;;;;;6268820;28;20499;-61
2024/01/08 14:14:39;;;;;;;65.43;21.45;;;;;;;;;;6271488;28;20094;-62
2024/01/08 14:17:41;;;;;;;62.25;21.88;;;;;;;;;;6263142;28;20529;-60
2024/01/08 14:20:41;;;;;;;60.83;20.33;;;;;;;;;;6267068;28;20451;-62
2024/01/08 14:23:42;;;;;;;64.57;20.50;;;;;;;;;;6267007;28;20066;-61
2024/01/08 14:26:43;;;;;;;75.63;22.55;;;;;;;;;;6261575;28;20119;-57
2024/01/08 14:29:46;;;;;;;75.47;24.92;;;;;;;;;;6265834;28;20044;-59
2024/01/08 14:32:46;;;;;;;80.82;24.52;;;;;;;;;;6269215;28;20179;-58
2024/01/08 14:35:47;;;;;;;86.22;25.92;;;;;;;;;;6263018;28;20590;-57
2024/01/08 14:38:48;;;;;;;101.50;29.15;;;;;;;;;;6264143;28;20512;-56
2024/01/08 14:41:49;;;;;;;115.47;31.45;;;;;;;;;;6267403;28;20110;-59
2024/01/08 14:44:53;;;;;;;117.45;36.58;;;;;;;;;;6266958;28;20477;-56
2024/01/08 14:47:54;;;;;;;106.60;31.60;;;;;;;;;;6265397;28;20623;-59
2024/01/08 14:50:55;;;;;;;108.80;33.33;;;;;;;;;;6265872;28;20497;-58
2024/01/08 14:53:55;;;;;;;94.80;30.33;;;;;;;;;;6267187;28;20064;-62
2024/01/08 14:56:56;;;;;;;81.15;29.38;;;;;;;;;;6266108;28;20607;-58
2024/01/08 14:59:57;;;;;;;85.47;27.23;;;;;;;;;;6267228;28;20052;-62
2024/01/08 15:02:58;;;;;;;84.15;29.20;;;;;;;;;;6281320;28;20044;-59
2024/01/08 15:06:04;;;;;;;89.18;32.45;;;;;;;;;;6278564;28;20420;-60
2024/01/08 15:09:05;;;;;;;87.13;27.88;;;;;;;;;;6278236;28;20048;-58
2024/01/08 15:12:06;;;;;;;98.95;34.22;;;;;;;;;;6283492;28;20067;-61
2024/01/08 15:15:09;;;;;;;117.75;36.45;;;;;;;;;;6277221;28;20052;-59
2024/01/08 15:18:10;;;;;;;117.18;37.78;;;;;;;;;;6288210;28;20094;-63
2024/01/08 15:21:10;;;;;;;115.45;36.83;;;;;;;;;;6281694;28;20049;-62
2024/01/08 15:24:12;;;;;;;104.90;33.80;;;;;;;;;;6288998;28;20056;-62
2024/01/08 15:27:13;;;;;;;78.43;28.80;;;;;;;;;;6280594;28;20045;-62
2024/01/08 15:30:14;;;;;;;92.00;30.83;;;;;;;;;;6286019;28;21167;-62
2024/01/08 15:33:15;;;;;;;83.57;28.30;;;;;;;;;;6287540;28;20060;-62
2024/01/08 15:36:17;;;;;;;71.30;25.77;;;;;;;;;;6286670;28;20411;-61
2024/01/08 15:39:18;;;;;;;64.75;23.20;;;;;;;;;;6281460;28;20282;-61
2024/01/08 15:42:20;;;;;;;62.20;23.53;;;;;;;;;;6286707;28;20407;-61
2024/01/08 15:45:21;;;;;;;55.30;21.00;;;;;;;;;;6284730;28;20037;-60
2024/01/08 15:48:22;;;;;;;61.33;21.75;;;;;;;;;;6284630;28;20133;-61
2024/01/08 15:51:24;;;;;;;62.13;20.88;;;;;;;;;;6280738;28;20098;-62
2024/01/08 15:54:25;;;;;;;49.95;20.15;;;;;;;;;;6284156;28;20552;-62
2024/01/08 15:57:26;;;;;;;54.42;18.40;;;;;;;;;;6286191;28;20044;-60
2024/01/08 16:00:27;;;;;;;53.85;19.55;;;;;;;;;;6290873;28;20408;-60
2024/01/08 16:03:27;;;;;;;51.15;18.27;;;;;;;;;;6290928;28;20041;-61
2024/01/08 16:06:28;;;;;;;53.40;19.02;;;;;;;;;;6289896;28;20547;-60
2024/01/08 16:09:30;;;;;;;49.50;18.00;;;;;;;;;;6288985;28;20738;-62
2024/01/08 16:12:31;;;;;;;62.10;18.95;;;;;;;;;;6293163;28;20048;-62
2024/01/08 16:15:32;;;;;;;55.67;20.83;;;;;;;;;;6294201;28;20048;-60
2024/01/08 16:18:33;;;;;;;51.65;19.35;;;;;;;;;;6291948;28;20048;-61
2024/01/08 16:21:34;;;;;;;60.28;22.05;;;;;;;;;;6294509;28;20097;-62
2024/01/08 16:24:35;;;;;;;64.07;24.25;;;;;;;;;;6293907;28;20048;-57
2024/01/08 16:27:35;;;;;;;69.93;23.58;;;;;;;;;;6288804;28;20044;-58
2024/01/08 16:30:36;;;;;;;73.45;25.23;;;;;;;;;;6293243;28;20036;-59
2024/01/08 16:33:37;;;;;;;75.30;24.75;;;;;;;;;;6293867;28;20048;-60
2024/01/08 16:36:37;;;;;;;86.78;26.83;;;;;;;;;;6284552;28;20049;-60
2024/01/08 16:39:38;;;;;;;90.38;28.65;;;;;;;;;;6288086;28;20419;-60
2024/01/08 16:42:39;;;;;;;150.10;41.17;;;;;;;;;;6292542;28;20454;-60
2024/01/08 16:45:39;;;;;;;169.55;43.28;;;;;;;;;;6293612;28;20036;-60
2024/01/08 16:48:40;;;;;;;82.75;28.30;;;;;;;;;;6291351;28;20115;-62
2024/01/08 16:51:41;;;;;;;82.97;27.60;;;;;;;;;;6293156;28;20047;-61
2024/01/08 16:54:42;;;;;;;66.90;24.00;;;;;;;;;;6293129;28;20407;-59
2024/01/08 16:57:43;;;;;;;78.10;26.75;;;;;;;;;;6289927;28;20045;-61
2024/01/08 17:00:44;;;;;;;70.82;24.88;;;;;;;;;;6286300;28;20075;-59
2024/01/08 17:03:45;;;;;;;72.35;25.80;;;;;;;;;;6290276;28;20052;-57
2024/01/08 17:06:46;;;;;;;70.60;24.95;;;;;;;;;;6291324;28;20503;-59
2024/01/08 17:09:47;;;;;;;77.75;27.92;;;;;;;;;;6290318;28;20048;-58
2024/01/08 17:12:48;;;;;;;83.65;27.42;;;;;;;;;;6280039;28;21009;-58
2024/01/08 17:15:49;;;;;;;87.57;26.73;;;;;;;;;;6277247;28;20055;-62
2024/01/08 17:18:50;;;;;;;78.18;24.88;;;;;;;;;;6266609;28;20053;-59
2024/01/08 17:21:51;;;;;;;78.97;25.38;;;;;;;;;;6270119;28;20048;-59
2024/01/08 17:24:52;;;;;;;71.50;24.67;;;;;;;;;;6271334;28;20065;-59
2024/01/08 17:27:52;;;;;;;64.80;21.70;;;;;;;;;;6268505;28;20052;-59
2024/01/08 17:30:54;;;;;;;74.68;23.80;;;;;;;;;;6266028;28;20495;-60
2024/01/08 17:33:55;;;;;;;73.78;22.40;;;;;;;;;;6269312;28;20048;-61
2024/01/08 17:36:56;;;;;;;64.40;22.90;;;;;;;;;;6270350;28;20071;-61